Blue Springs, Nebraska
Current Conditions -  °F | °C
As of 2:35 PM on Monday 22 Dec 2014 (Local Time) from KBIE Reporting Station
Overcast Overcast  
Wind Chill: 38°   Ceiling: 2100
Heat Index: 45°   Visibility: 10mi
Dew Point: 40°   Wind: 15mph
Humidity: 85%   Direction: 310°NW
Pressure: 29.44"   Gusts: 21mph
Location:  40.14°N, 96.66°W
Report Text: KBIE 222035Z AUTO 31013G18KT 10SM BKN021 BKN027 OVC041 07/05 A2944 RMK AO2 T00700047
Loading
Personal Weather Stations






























Interactive Weather Map New forecast layout! Learn more

10-Day Weather Forecast

Advertisements
Track Severe Weather on mobile